sensor_id;sensor_type;location;lat;lon;timestamp;pressure;altitude;pressure_sealevel;temperature;humidity
30598;BME280;17365;48.878;8.334;2023-05-13T00:01:01;100067.25;;;13.02;92.85
30598;BME280;17365;48.878;8.334;2023-05-13T00:03:26;100068.91;;;13.08;92.67
30598;BME280;17365;48.878;8.334;2023-05-13T00:05:52;100066.56;;;12.80;94.66
30598;BME280;17365;48.878;8.334;2023-05-13T00:08:18;100075.06;;;12.99;93.45
30598;BME280;17365;48.878;8.334;2023-05-13T00:10:44;100072.09;;;12.32;98.23
30598;BME280;17365;48.878;8.334;2023-05-13T00:13:09;100072.66;;;12.75;96.24
30598;BME280;17365;48.878;8.334;2023-05-13T00:15:34;100076.31;;;12.51;98.22
30598;BME280;17365;48.878;8.334;2023-05-13T00:17:59;100069.28;;;12.62;96.38
30598;BME280;17365;48.878;8.334;2023-05-13T00:20:25;100071.94;;;12.53;97.08
30598;BME280;17365;48.878;8.334;2023-05-13T00:22:50;100082.25;;;12.70;95.95
30598;BME280;17365;48.878;8.334;2023-05-13T00:25:15;100079.75;;;12.58;96.92
30598;BME280;17365;48.878;8.334;2023-05-13T00:27:41;100079.63;;;12.73;95.58
30598;BME280;17365;48.878;8.334;2023-05-13T00:30:07;100086.56;;;12.74;95.34
30598;BME280;17365;48.878;8.334;2023-05-13T00:32:33;100083.28;;;12.47;97.65
30598;BME280;17365;48.878;8.334;2023-05-13T00:34:58;100072.88;;;12.46;98.18
30598;BME280;17365;48.878;8.334;2023-05-13T00:37:23;100079.72;;;12.56;97.29
30598;BME280;17365;48.878;8.334;2023-05-13T00:39:49;100076.34;;;12.46;97.61
30598;BME280;17365;48.878;8.334;2023-05-13T00:42:14;100085.94;;;12.32;99.45
30598;BME280;17365;48.878;8.334;2023-05-13T00:44:39;100087.59;;;12.50;97.89
30598;BME280;17365;48.878;8.334;2023-05-13T00:47:04;100085.84;;;12.52;97.27
30598;BME280;17365;48.878;8.334;2023-05-13T00:49:31;100088.50;;;12.40;98.67
30598;BME280;17365;48.878;8.334;2023-05-13T00:51:56;100084.25;;;12.30;98.68
30598;BME280;17365;48.878;8.334;2023-05-13T00:54:21;100083.28;;;12.44;97.95
30598;BME280;17365;48.878;8.334;2023-05-13T00:56:46;100081.53;;;12.43;97.85
30598;BME280;17365;48.878;8.334;2023-05-13T00:59:12;100077.22;;;12.41;97.96
30598;BME280;17365;48.878;8.334;2023-05-13T01:01:39;100079.81;;;12.48;97.39
30598;BME280;17365;48.878;8.334;2023-05-13T01:06:57;100089.41;;;12.36;98.37
30598;BME280;17365;48.878;8.334;2023-05-13T01:11:56;100083.31;;;12.41;97.43
30598;BME280;17365;48.878;8.334;2023-05-13T01:14:30;100085.94;;;12.37;97.76
30598;BME280;17365;48.878;8.334;2023-05-13T01:16:58;100094.56;;;12.42;97.34
30598;BME280;17365;48.878;8.334;2023-05-13T01:19:34;100092.84;;;12.41;96.84
30598;BME280;17365;48.878;8.334;2023-05-13T01:22:03;100091.38;;;11.91;100.00
30598;BME280;17365;48.878;8.334;2023-05-13T01:24:28;100098.19;;;12.16;99.08
30598;BME280;17365;48.878;8.334;2023-05-13T01:26:53;100099.03;;;12.24;98.04
30598;BME280;17365;48.878;8.334;2023-05-13T01:29:19;100092.06;;;12.28;98.02
30598;BME280;17365;48.878;8.334;2023-05-13T01:31:44;100100.72;;;12.27;97.80
30598;BME280;17365;48.878;8.334;2023-05-13T01:34:10;100106.88;;;12.08;99.59
30598;BME280;17365;48.878;8.334;2023-05-13T01:36:37;100102.63;;;11.94;100.00
30598;BME280;17365;48.878;8.334;2023-05-13T01:39:03;100099.94;;;12.11;99.22
30598;BME280;17365;48.878;8.334;2023-05-13T01:41:28;100110.41;;;11.93;99.86
30598;BME280;17365;48.878;8.334;2023-05-13T01:43:53;100106.94;;;11.94;99.55
30598;BME280;17365;48.878;8.334;2023-05-13T01:46:18;100105.25;;;11.90;100.00
30598;BME280;17365;48.878;8.334;2023-05-13T01:48:44;100107.78;;;12.05;98.73
30598;BME280;17365;48.878;8.334;2023-05-13T01:51:09;100106.09;;;11.92;99.10
30598;BME280;17365;48.878;8.334;2023-05-13T01:53:34;100098.31;;;11.84;99.61
30598;BME280;17365;48.878;8.334;2023-05-13T01:56:00;100108.69;;;11.77;100.00
30598;BME280;17365;48.878;8.334;2023-05-13T01:58:25;100098.31;;;11.90;99.67
30598;BME280;17365;48.878;8.334;2023-05-13T02:00:50;100101.78;;;11.76;100.00
30598;BME280;17365;48.878;8.334;2023-05-13T02:03:16;100106.13;;;11.80;100.00
30598;BME280;17365;48.878;8.334;2023-05-13T02:05:41;100098.31;;;11.86;99.49
30598;BME280;17365;48.878;8.334;2023-05-13T02:08:06;100091.38;;;11.79;99.40
30598;BME280;17365;48.878;8.334;2023-05-13T02:10:31;100101.78;;;11.71;99.90
30598;BME280;17365;48.878;8.334;2023-05-13T02:12:56;100100.94;;;11.72;99.36
30598;BME280;17365;48.878;8.334;2023-05-13T02:15:22;100103.53;;;11.63;100.00
30598;BME280;17365;48.878;8.334;2023-05-13T02:17:47;100100.09;;;11.59;100.00
30598;BME280;17365;48.878;8.334;2023-05-13T02:20:12;100103.56;;;11.61;99.82
30598;BME280;17365;48.878;8.334;2023-05-13T02:22:38;100101.03;;;11.35;100.00
30598;BME280;17365;48.878;8.334;2023-05-13T02:25:03;100101.00;;;11.42;100.00
30598;BME280;17365;48.878;8.334;2023-05-13T02:27:28;100095.78;;;11.55;100.00
30598;BME280;17365;48.878;8.334;2023-05-13T02:29:53;100090.56;;;11.60;99.91
30598;BME280;17365;48.878;8.334;2023-05-13T02:32:19;100107.06;;;11.48;99.83
30598;BME280;17365;48.878;8.334;2023-05-13T02:34:44;100103.59;;;11.49;100.00
30598;BME280;17365;48.878;8.334;2023-05-13T02:37:09;100099.28;;;11.27;100.00
30598;BME280;17365;48.878;8.334;2023-05-13T02:39:34;100101.00;;;11.38;100.00
30598;BME280;17365;48.878;8.334;2023-05-13T02:42:00;100100.09;;;11.52;99.80
30598;BME280;17365;48.878;8.334;2023-05-13T02:44:25;100103.59;;;11.45;100.00
30598;BME280;17365;48.878;8.334;2023-05-13T02:46:50;100106.22;;;11.29;100.00
30598;BME280;17365;48.878;8.334;2023-05-13T02:49:15;100097.56;;;11.29;100.00
30598;BME280;17365;48.878;8.334;2023-05-13T02:51:40;100096.69;;;11.34;100.00
30598;BME280;17365;48.878;8.334;2023-05-13T02:54:06;100096.69;;;11.36;100.00
30598;BME280;17365;48.878;8.334;2023-05-13T02:56:31;100099.28;;;11.47;100.00
30598;BME280;17365;48.878;8.334;2023-05-13T02:58:56;100097.53;;;11.41;100.00
30598;BME280;17365;48.878;8.334;2023-05-13T03:01:21;100090.59;;;11.42;100.00
30598;BME280;17365;48.878;8.334;2023-05-13T03:03:46;100094.94;;;11.47;100.00
30598;BME280;17365;48.878;8.334;2023-05-13T03:06:12;100097.53;;;11.40;100.00
30598;BME280;17365;48.878;8.334;2023-05-13T03:08:37;100097.53;;;11.32;100.00
30598;BME280;17365;48.878;8.334;2023-05-13T03:11:02;100097.56;;;11.24;100.00
30598;BME280;17365;48.878;8.334;2023-05-13T03:13:28;100093.25;;;11.25;100.00
30598;BME280;17365;48.878;8.334;2023-05-13T03:15:54;100100.16;;;11.24;100.00
30598;BME280;17365;48.878;8.334;2023-05-13T03:18:19;100111.41;;;11.28;100.00
30598;BME280;17365;48.878;8.334;2023-05-13T03:20:44;100104.50;;;11.25;100.00
30598;BME280;17365;48.878;8.334;2023-05-13T03:23:10;100114.88;;;10.87;100.00
30598;BME280;17365;48.878;8.334;2023-05-13T03:25:35;100110.56;;;11.03;100.00
30598;BME280;17365;48.878;8.334;2023-05-13T03:28:01;100110.56;;;11.03;100.00
30598;BME280;17365;48.878;8.334;2023-05-13T03:30:26;100105.34;;;10.83;100.00
30598;BME280;17365;48.878;8.334;2023-05-13T03:32:52;100113.16;;;10.88;100.00
30598;BME280;17365;48.878;8.334;2023-05-13T03:35:17;100109.69;;;10.84;100.00
30598;BME280;17365;48.878;8.334;2023-05-13T03:37:42;100114.88;;;10.92;100.00
30598;BME280;17365;48.878;8.334;2023-05-13T03:40:08;100116.63;;;10.76;100.00
30598;BME280;17365;48.878;8.334;2023-05-13T03:42:33;100112.28;;;10.90;100.00
30598;BME280;17365;48.878;8.334;2023-05-13T03:44:58;100115.72;;;10.71;100.00
30598;BME280;17365;48.878;8.334;2023-05-13T03:47:23;100119.19;;;10.82;100.00
30598;BME280;17365;48.878;8.334;2023-05-13T03:49:49;100120.06;;;10.90;100.00
30598;BME280;17365;48.878;8.334;2023-05-13T03:52:14;100123.53;;;10.94;100.00
30598;BME280;17365;48.878;8.334;2023-05-13T03:54:40;100133.91;;;10.95;100.00
30598;BME280;17365;48.878;8.334;2023-05-13T03:57:06;100127.88;;;10.90;100.00
30598;BME280;17365;48.878;8.334;2023-05-13T03:59:31;100133.06;;;10.92;100.00
30598;BME280;17365;48.878;8.334;2023-05-13T04:01:56;100129.56;;;10.65;100.00
30598;BME280;17365;48.878;8.334;2023-05-13T04:04:21;100131.31;;;10.85;100.00
30598;BME280;17365;48.878;8.334;2023-05-13T04:06:46;100136.50;;;10.91;100.00
30598;BME280;17365;48.878;8.334;2023-05-13T04:09:12;100134.78;;;10.90;100.00
30598;BME280;17365;48.878;8.334;2023-05-13T04:11:37;100128.69;;;10.72;100.00
30598;BME280;17365;48.878;8.334;2023-05-13T04:14:02;100126.94;;;10.61;100.00
30598;BME280;17365;48.878;8.334;2023-05-13T04:16:27;100127.84;;;10.87;100.00
30598;BME280;17365;48.878;8.334;2023-05-13T04:18:53;100132.19;;;10.81;100.00
30598;BME280;17365;48.878;8.334;2023-05-13T04:21:18;100137.38;;;10.96;100.00
30598;BME280;17365;48.878;8.334;2023-05-13T04:23:43;100129.56;;;11.31;100.00
30598;BME280;17365;48.878;8.334;2023-05-13T04:26:09;100133.88;;;11.58;100.00
30598;BME280;17365;48.878;8.334;2023-05-13T04:28:35;100136.44;;;11.91;98.25
30598;BME280;17365;48.878;8.334;2023-05-13T04:31:00;100146.84;;;11.72;95.80
30598;BME280;17365;48.878;8.334;2023-05-13T04:33:26;100149.34;;;12.10;95.98
30598;BME280;17365;48.878;8.334;2023-05-13T04:35:51;100149.19;;;12.42;93.59
30598;BME280;17365;48.878;8.334;2023-05-13T04:38:17;100161.25;;;12.60;92.28
30598;BME280;17365;48.878;8.334;2023-05-13T04:40:42;100154.50;;;12.23;93.31
30598;BME280;17365;48.878;8.334;2023-05-13T04:43:07;100155.50;;;11.83;95.57
30598;BME280;17365;48.878;8.334;2023-05-13T04:45:33;100153.78;;;11.68;96.84
30598;BME280;17365;48.878;8.334;2023-05-13T04:47:58;100156.38;;;11.85;95.91
30598;BME280;17365;48.878;8.334;2023-05-13T04:50:23;100147.56;;;12.21;95.01
30598;BME280;17365;48.878;8.334;2023-05-13T04:52:48;100158.78;;;12.34;93.14
30598;BME280;17365;48.878;8.334;2023-05-13T04:55:14;100155.22;;;12.58;91.24
30598;BME280;17365;48.878;8.334;2023-05-13T04:57:39;100153.94;;;13.13;90.25
30598;BME280;17365;48.878;8.334;2023-05-13T05:00:04;100156.13;;;12.47;88.19
30598;BME280;17365;48.878;8.334;2023-05-13T05:02:30;100151.41;;;13.06;88.63
30598;BME280;17365;48.878;8.334;2023-05-13T05:04:55;100157.28;;;13.32;86.09
30598;BME280;17365;48.878;8.334;2023-05-13T05:07:21;100157.09;;;13.54;85.83
30598;BME280;17365;48.878;8.334;2023-05-13T05:09:46;100166.34;;;12.76;88.51
30598;BME280;17365;48.878;8.334;2023-05-13T05:12:11;100167.22;;;12.77;87.91
30598;BME280;17365;48.878;8.334;2023-05-13T05:14:36;100168.34;;;13.57;86.14
30598;BME280;17365;48.878;8.334;2023-05-13T05:17:02;100169.91;;;13.75;83.70
30598;BME280;17365;48.878;8.334;2023-05-13T05:19:27;100177.13;;;13.49;83.23
30598;BME280;17365;48.878;8.334;2023-05-13T05:21:52;100174.97;;;13.90;82.85
30598;BME280;17365;48.878;8.334;2023-05-13T05:24:17;100176.91;;;13.73;81.47
30598;BME280;17365;48.878;8.334;2023-05-13T05:26:43;100182.38;;;13.43;83.58
30598;BME280;17365;48.878;8.334;2023-05-13T05:29:08;100190.84;;;13.66;82.51
30598;BME280;17365;48.878;8.334;2023-05-13T05:31:33;100191.31;;;13.09;83.79
30598;BME280;17365;48.878;8.334;2023-05-13T05:33:59;100188.25;;;13.67;82.67
30598;BME280;17365;48.878;8.334;2023-05-13T05:36:25;100186.59;;;13.56;81.60
30598;BME280;17365;48.878;8.334;2023-05-13T05:38:50;100190.84;;;13.67;81.29
30598;BME280;17365;48.878;8.334;2023-05-13T05:41:16;100191.34;;;14.02;79.68
30598;BME280;17365;48.878;8.334;2023-05-13T05:43:41;100192.66;;;13.62;81.25
30598;BME280;17365;48.878;8.334;2023-05-13T05:46:06;100201.53;;;13.38;82.14
30598;BME280;17365;48.878;8.334;2023-05-13T05:48:31;100190.22;;;14.24;79.92
30598;BME280;17365;48.878;8.334;2023-05-13T05:50:57;100192.09;;;14.16;79.49
30598;BME280;17365;48.878;8.334;2023-05-13T05:53:22;100199.13;;;14.08;79.33
30598;BME280;17365;48.878;8.334;2023-05-13T05:55:47;100196.78;;;13.85;79.00
30598;BME280;17365;48.878;8.334;2023-05-13T05:58:16;100194.81;;;14.07;79.75
30598;BME280;17365;48.878;8.334;2023-05-13T06:00:41;100191.75;;;14.45;78.05
30598;BME280;17365;48.878;8.334;2023-05-13T06:03:06;100186.75;;;14.25;78.49
30598;BME280;17365;48.878;8.334;2023-05-13T06:05:31;100189.16;;;14.45;76.38
30598;BME280;17365;48.878;8.334;2023-05-13T06:07:57;100188.00;;;13.93;76.13
30598;BME280;17365;48.878;8.334;2023-05-13T06:10:22;100183.22;;;14.31;77.04
30598;BME280;17365;48.878;8.334;2023-05-13T06:12:47;100182.78;;;14.66;76.39
30598;BME280;17365;48.878;8.334;2023-05-13T06:15:12;100184.13;;;14.28;75.76
30598;BME280;17365;48.878;8.334;2023-05-13T06:17:38;100194.31;;;14.48;75.47
30598;BME280;17365;48.878;8.334;2023-05-13T06:20:03;100194.22;;;13.79;76.83
30598;BME280;17365;48.878;8.334;2023-05-13T06:22:29;100197.25;;;14.19;75.83
30598;BME280;17365;48.878;8.334;2023-05-13T06:24:55;100192.88;;;14.21;75.91
30598;BME280;17365;48.878;8.334;2023-05-13T06:27:20;100196.97;;;14.45;75.04
30598;BME280;17365;48.878;8.334;2023-05-13T06:29:45;100207.81;;;14.10;74.94
30598;BME280;17365;48.878;8.334;2023-05-13T06:32:10;100205.16;;;14.13;74.70
30598;BME280;17365;48.878;8.334;2023-05-13T06:34:36;100197.88;;;14.38;72.94
30598;BME280;17365;48.878;8.334;2023-05-13T06:37:02;100210.56;;;13.93;73.93
30598;BME280;17365;48.878;8.334;2023-05-13T06:39:27;100208.34;;;14.36;74.00
30598;BME280;17365;48.878;8.334;2023-05-13T06:41:53;100208.34;;;14.36;71.22
30598;BME280;17365;48.878;8.334;2023-05-13T06:44:18;100213.81;;;14.89;71.08
30598;BME280;17365;48.878;8.334;2023-05-13T06:46:43;100211.81;;;15.04;70.18
30598;BME280;17365;48.878;8.334;2023-05-13T06:49:08;100213.19;;;14.70;69.31
30598;BME280;17365;48.878;8.334;2023-05-13T06:51:34;100214.63;;;14.91;67.89
30598;BME280;17365;48.878;8.334;2023-05-13T06:53:59;100208.78;;;14.75;68.15
30598;BME280;17365;48.878;8.334;2023-05-13T06:56:24;100212.63;;;14.45;68.25
30598;BME280;17365;48.878;8.334;2023-05-13T06:58:50;100211.69;;;14.52;67.53
30598;BME280;17365;48.878;8.334;2023-05-13T07:01:16;100205.84;;;14.98;67.37
30598;BME280;17365;48.878;8.334;2023-05-13T07:03:42;100213.97;;;15.35;66.09
30598;BME280;17365;48.878;8.334;2023-05-13T07:06:07;100215.56;;;14.87;64.38
30598;BME280;17365;48.878;8.334;2023-05-13T07:08:32;100217.41;;;14.80;66.26
30598;BME280;17365;48.878;8.334;2023-05-13T07:10:58;100213.53;;;15.08;65.37
30598;BME280;17365;48.878;8.334;2023-05-13T07:13:23;100214.19;;;15.21;65.41
30598;BME280;17365;48.878;8.334;2023-05-13T07:15:48;100210.94;;;15.04;64.19
30598;BME280;17365;48.878;8.334;2023-05-13T07:18:14;100212.19;;;15.37;64.33
30598;BME280;17365;48.878;8.334;2023-05-13T07:20:39;100209.13;;;15.10;63.45
30598;BME280;17365;48.878;8.334;2023-05-13T07:23:04;100212.69;;;14.39;66.65
30598;BME280;17365;48.878;8.334;2023-05-13T07:25:29;100222.50;;;14.89;66.14
30598;BME280;17365;48.878;8.334;2023-05-13T07:27:54;100223.19;;;15.02;65.08
30598;BME280;17365;48.878;8.334;2023-05-13T07:30:20;100222.00;;;15.23;64.21
30598;BME280;17365;48.878;8.334;2023-05-13T07:32:46;100225.91;;;14.94;65.03
30598;BME280;17365;48.878;8.334;2023-05-13T07:35:11;100220.41;;;15.12;64.80
30598;BME280;17365;48.878;8.334;2023-05-13T07:37:36;100228.53;;;14.93;65.95
30598;BME280;17365;48.878;8.334;2023-05-13T07:40:02;100218.59;;;14.54;67.46
30598;BME280;17365;48.878;8.334;2023-05-13T07:42:28;100226.03;;;14.83;66.91
30598;BME280;17365;48.878;8.334;2023-05-13T07:44:54;100228.84;;;14.70;67.51
30598;BME280;17365;48.878;8.334;2023-05-13T07:47:20;100225.91;;;14.23;69.06
30598;BME280;17365;48.878;8.334;2023-05-13T07:49:45;100230.03;;;14.44;68.32
30598;BME280;17365;48.878;8.334;2023-05-13T07:52:10;100224.84;;;14.41;68.24
30598;BME280;17365;48.878;8.334;2023-05-13T07:54:35;100233.56;;;14.40;66.78
30598;BME280;17365;48.878;8.334;2023-05-13T07:57:01;100233.03;;;14.81;66.70
30598;BME280;17365;48.878;8.334;2023-05-13T07:59:27;100225.47;;;14.60;66.84
30598;BME280;17365;48.878;8.334;2023-05-13T08:01:52;100230.78;;;14.55;67.32
30598;BME280;17365;48.878;8.334;2023-05-13T08:04:17;100231.44;;;13.91;68.61
30598;BME280;17365;48.878;8.334;2023-05-13T08:06:43;100234.41;;;14.41;67.94
30598;BME280;17365;48.878;8.334;2023-05-13T08:09:09;100238.53;;;14.60;66.57
30598;BME280;17365;48.878;8.334;2023-05-13T08:11:36;100227.34;;;14.53;66.78
30598;BME280;17365;48.878;8.334;2023-05-13T08:14:01;100231.47;;;14.68;67.31
30598;BME280;17365;48.878;8.334;2023-05-13T08:16:27;100233.88;;;14.85;66.63
30598;BME280;17365;48.878;8.334;2023-05-13T08:18:52;100226.75;;;14.95;65.46
30598;BME280;17365;48.878;8.334;2023-05-13T08:21:17;100218.03;;;14.97;66.12
30598;BME280;17365;48.878;8.334;2023-05-13T08:23:42;100224.03;;;15.02;66.15
30598;BME280;17365;48.878;8.334;2023-05-13T08:26:07;100238.00;;;15.01;66.13
30598;BME280;17365;48.878;8.334;2023-05-13T08:28:33;100233.13;;;14.77;68.05
30598;BME280;17365;48.878;8.334;2023-05-13T08:30:58;100222.94;;;15.19;66.66
30598;BME280;17365;48.878;8.334;2023-05-13T08:33:28;100224.59;;;15.24;66.04
30598;BME280;17365;48.878;8.334;2023-05-13T08:35:54;100229.69;;;15.33;65.59
30598;BME280;17365;48.878;8.334;2023-05-13T08:38:19;100235.88;;;14.65;67.82
30598;BME280;17365;48.878;8.334;2023-05-13T08:40:44;100233.72;;;14.97;67.27
30598;BME280;17365;48.878;8.334;2023-05-13T08:43:10;100220.91;;;15.36;66.02
30598;BME280;17365;48.878;8.334;2023-05-13T08:45:38;100227.13;;;15.29;66.01
30598;BME280;17365;48.878;8.334;2023-05-13T08:48:04;100221.72;;;15.41;65.35
30598;BME280;17365;48.878;8.334;2023-05-13T08:50:29;100226.78;;;14.93;67.21
30598;BME280;17365;48.878;8.334;2023-05-13T08:52:56;100226.75;;;14.98;66.87
30598;BME280;17365;48.878;8.334;2023-05-13T08:55:21;100229.53;;;14.82;68.07
30598;BME280;17365;48.878;8.334;2023-05-13T08:57:48;100226.91;;;15.44;65.98
30598;BME280;17365;48.878;8.334;2023-05-13T09:00:13;100229.28;;;15.02;67.93
30598;BME280;17365;48.878;8.334;2023-05-13T09:02:38;100216.28;;;15.53;64.95
30598;BME280;17365;48.878;8.334;2023-05-13T09:05:05;100234.63;;;15.52;65.43
30598;BME280;17365;48.878;8.334;2023-05-13T09:07:34;100225.34;;;15.86;63.99
30598;BME280;17365;48.878;8.334;2023-05-13T09:09:59;100228.53;;;14.93;67.29
30598;BME280;17365;48.878;8.334;2023-05-13T09:15:09;100231.09;;;15.54;65.59
30598;BME280;17365;48.878;8.334;2023-05-13T09:17:38;100227.75;;;15.95;64.88
30598;BME280;17365;48.878;8.334;2023-05-13T09:20:07;100229.06;;;15.71;65.25
30598;BME280;17365;48.878;8.334;2023-05-13T09:22:32;100229.25;;;16.10;63.89
30598;BME280;17365;48.878;8.334;2023-05-13T09:24:58;100231.47;;;16.32;63.06
30598;BME280;17365;48.878;8.334;2023-05-13T09:27:34;100232.19;;;15.92;63.77
30598;BME280;17365;48.878;8.334;2023-05-13T09:30:00;100237.13;;;16.52;62.76
30598;BME280;17365;48.878;8.334;2023-05-13T09:32:25;100235.91;;;16.26;62.57
30598;BME280;17365;48.878;8.334;2023-05-13T09:34:50;100232.00;;;16.47;62.51
30598;BME280;17365;48.878;8.334;2023-05-13T09:37:16;100229.25;;;16.53;61.51
30598;BME280;17365;48.878;8.334;2023-05-13T09:39:42;100231.81;;;16.56;62.13
30598;BME280;17365;48.878;8.334;2023-05-13T09:42:17;100226.69;;;16.50;62.06
30598;BME280;17365;48.878;8.334;2023-05-13T09:44:45;100224.88;;;16.11;62.18
30598;BME280;17365;48.878;8.334;2023-05-13T09:47:13;100234.09;;;16.30;63.47
30598;BME280;17365;48.878;8.334;2023-05-13T09:49:39;100224.91;;;16.52;61.26
30598;BME280;17365;48.878;8.334;2023-05-13T09:52:05;100225.31;;;16.77;61.23
30598;BME280;17365;48.878;8.334;2023-05-13T09:54:34;100230.22;;;16.91;60.62
30598;BME280;17365;48.878;8.334;2023-05-13T09:57:00;100228.22;;;17.02;59.37
30598;BME280;17365;48.878;8.334;2023-05-13T09:59:25;100225.38;;;16.73;59.06
30598;BME280;17365;48.878;8.334;2023-05-13T10:01:50;100247.28;;;16.70;59.46
30598;BME280;17365;48.878;8.334;2023-05-13T10:04:18;100233.13;;;16.36;59.57
30598;BME280;17365;48.878;8.334;2023-05-13T10:06:43;100245.97;;;16.91;58.88
30598;BME280;17365;48.878;8.334;2023-05-13T10:09:09;100229.94;;;17.03;57.51
30598;BME280;17365;48.878;8.334;2023-05-13T10:11:35;100237.22;;;17.29;57.21
30598;BME280;17365;48.878;8.334;2023-05-13T10:14:02;100228.19;;;17.04;57.04
30598;BME280;17365;48.878;8.334;2023-05-13T10:16:29;100230.03;;;17.37;57.08
30598;BME280;17365;48.878;8.334;2023-05-13T10:18:56;100223.38;;;16.84;56.65
30598;BME280;17365;48.878;8.334;2023-05-13T10:21:21;100217.31;;;17.21;56.57
30598;BME280;17365;48.878;8.334;2023-05-13T10:23:46;100218.78;;;16.95;58.44
30598;BME280;17365;48.878;8.334;2023-05-13T10:26:15;100231.94;;;17.65;56.33
30598;BME280;17365;48.878;8.334;2023-05-13T10:28:41;100228.69;;;17.55;54.69
30598;BME280;17365;48.878;8.334;2023-05-13T10:31:07;100222.25;;;16.96;56.04
30598;BME280;17365;48.878;8.334;2023-05-13T10:33:32;100223.78;;;17.06;55.90
30598;BME280;17365;48.878;8.334;2023-05-13T10:44:08;100216.88;;;18.07;54.12
30598;BME280;17365;48.878;8.334;2023-05-13T10:46:33;100218.59;;;17.75;54.33
30598;BME280;17365;48.878;8.334;2023-05-13T10:48:58;100219.41;;;17.78;55.54
30598;BME280;17365;48.878;8.334;2023-05-13T10:51:24;100220.50;;;18.03;54.41
30598;BME280;17365;48.878;8.334;2023-05-13T10:56:15;100228.50;;;17.98;53.44
30598;BME280;17365;48.878;8.334;2023-05-13T10:58:43;100224.19;;;17.96;53.21
30598;BME280;17365;48.878;8.334;2023-05-13T11:03:58;100221.03;;;18.16;53.75
30598;BME280;17365;48.878;8.334;2023-05-13T11:06:43;100212.06;;;18.23;54.00
30598;BME280;17365;48.878;8.334;2023-05-13T11:09:12;100222.13;;;17.39;55.08
30598;BME280;17365;48.878;8.334;2023-05-13T11:11:38;100223.28;;;17.27;55.92
30598;BME280;17365;48.878;8.334;2023-05-13T11:16:34;100219.38;;;18.12;53.12
30598;BME280;17365;48.878;8.334;2023-05-13T11:19:01;100212.06;;;18.54;52.07
30598;BME280;17365;48.878;8.334;2023-05-13T11:21:34;100212.78;;;17.97;52.31
30598;BME280;17365;48.878;8.334;2023-05-13T11:24:03;100220.03;;;17.87;52.56
30598;BME280;17365;48.878;8.334;2023-05-13T11:26:44;100206.72;;;17.61;52.82
30598;BME280;17365;48.878;8.334;2023-05-13T11:29:10;100216.78;;;17.79;52.20
30598;BME280;17365;48.878;8.334;2023-05-13T11:34:08;100199.72;;;17.95;50.97
30598;BME280;17365;48.878;8.334;2023-05-13T11:36:33;100199.00;;;17.89;51.37
30598;BME280;17365;48.878;8.334;2023-05-13T11:41:31;100202.81;;;17.77;51.53
30598;BME280;17365;48.878;8.334;2023-05-13T11:43:57;100206.84;;;17.90;51.38
30598;BME280;17365;48.878;8.334;2023-05-13T11:46:23;100201.22;;;18.66;50.97
30598;BME280;17365;48.878;8.334;2023-05-13T11:48:49;100199.13;;;18.48;51.54
30598;BME280;17365;48.878;8.334;2023-05-13T11:51:16;100204.59;;;18.40;51.27
30598;BME280;17365;48.878;8.334;2023-05-13T11:53:42;100200.03;;;18.76;49.54
30598;BME280;17365;48.878;8.334;2023-05-13T11:56:07;100198.47;;;18.40;50.98
30598;BME280;17365;48.878;8.334;2023-05-13T11:58:34;100204.75;;;18.03;51.53
30598;BME280;17365;48.878;8.334;2023-05-13T12:00:59;100206.97;;;17.86;52.09
30598;BME280;17365;48.878;8.334;2023-05-13T12:03:26;100209.31;;;18.58;50.67
30598;BME280;17365;48.878;8.334;2023-05-13T12:05:59;100204.06;;;18.58;50.69
30598;BME280;17365;48.878;8.334;2023-05-13T12:08:24;100210.84;;;18.95;49.54
30598;BME280;17365;48.878;8.334;2023-05-13T12:10:50;100208.81;;;19.05;48.57
30598;BME280;17365;48.878;8.334;2023-05-13T12:13:15;100206.03;;;18.50;49.11
30598;BME280;17365;48.878;8.334;2023-05-13T12:15:41;100206.47;;;18.04;51.50
30598;BME280;17365;48.878;8.334;2023-05-13T12:18:06;100195.16;;;18.33;50.85
30598;BME280;17365;48.878;8.334;2023-05-13T12:20:32;100202.09;;;18.36;50.96
30598;BME280;17365;48.878;8.334;2023-05-13T12:22:59;100195.66;;;18.46;50.42
30598;BME280;17365;48.878;8.334;2023-05-13T12:27:58;100201.31;;;18.32;50.37
30598;BME280;17365;48.878;8.334;2023-05-13T12:30:24;100197.09;;;18.56;49.47
30598;BME280;17365;48.878;8.334;2023-05-13T12:32:49;100193.88;;;18.48;49.35
30598;BME280;17365;48.878;8.334;2023-05-13T12:35:15;100198.38;;;18.12;51.44
30598;BME280;17365;48.878;8.334;2023-05-13T12:37:40;100199.13;;;18.48;51.33
30598;BME280;17365;48.878;8.334;2023-05-13T12:40:09;100186.34;;;18.34;51.60
30598;BME280;17365;48.878;8.334;2023-05-13T12:42:34;100185.56;;;18.91;49.93
30598;BME280;17365;48.878;8.334;2023-05-13T12:44:59;100188.00;;;18.97;49.40
30598;BME280;17365;48.878;8.334;2023-05-13T12:47:26;100186.44;;;18.92;49.43
30598;BME280;17365;48.878;8.334;2023-05-13T12:49:55;100189.41;;;18.50;50.40
30598;BME280;17365;48.878;8.334;2023-05-13T12:52:22;100198.53;;;18.38;50.57
30598;BME280;17365;48.878;8.334;2023-05-13T12:54:47;100191.97;;;17.89;51.51
30598;BME280;17365;48.878;8.334;2023-05-13T12:57:14;100190.72;;;18.04;51.73
30598;BME280;17365;48.878;8.334;2023-05-13T12:59:39;100185.69;;;17.62;52.88
30598;BME280;17365;48.878;8.334;2023-05-13T13:02:05;100186.44;;;18.62;51.35
30598;BME280;17365;48.878;8.334;2023-05-13T13:04:30;100183.63;;;18.68;51.13
30598;BME280;17365;48.878;8.334;2023-05-13T13:06:56;100182.44;;;18.49;51.44
30598;BME280;17365;48.878;8.334;2023-05-13T13:09:21;100180.50;;;18.85;50.08
30598;BME280;17365;48.878;8.334;2023-05-13T13:11:46;100173.69;;;18.78;50.33